createdAt,value
2017-09-30T00:00:08.870Z,17.57
2017-09-30T00:02:37.313Z,16.17
2017-09-30T00:05:05.773Z,16.23
2017-09-30T00:07:34.213Z,16.83
2017-09-30T00:10:02.713Z,15.47
2017-09-30T00:12:31.295Z,17.60
2017-09-30T00:14:59.740Z,18.27
2017-09-30T00:17:29.086Z,18.23
2017-09-30T00:19:57.534Z,18.70
2017-09-30T00:22:25.997Z,18.80
2017-09-30T00:24:55.248Z,18.07
2017-09-30T00:27:23.829Z,19.57
2017-09-30T00:29:52.300Z,18.60
2017-09-30T00:32:20.777Z,19.13
2017-09-30T00:34:49.221Z,18.43
2017-09-30T00:37:18.453Z,19.67
2017-09-30T00:39:46.954Z,18.10
2017-09-30T00:42:15.539Z,16.90
2017-09-30T00:44:43.988Z,17.73
2017-09-30T00:47:13.321Z,19.43
2017-09-30T00:49:41.804Z,19.00
2017-09-30T00:52:10.249Z,20.47
2017-09-30T00:54:39.588Z,19.40
2017-09-30T00:57:08.029Z,18.97
2017-09-30T00:59:37.268Z,20.80
2017-09-30T01:02:05.714Z,19.83
2017-09-30T01:04:35.037Z,19.50
2017-09-30T01:07:03.486Z,20.03
2017-09-30T01:09:32.838Z,20.50
2017-09-30T01:12:01.294Z,18.87
2017-09-30T01:14:29.761Z,20.67
2017-09-30T01:16:58.997Z,19.73
2017-09-30T01:19:27.466Z,21.30
2017-09-30T01:21:55.919Z,21.00
2017-09-30T01:24:25.366Z,21.77
2017-09-30T01:26:53.812Z,20.83
2017-09-30T01:29:22.329Z,21.80
2017-09-30T01:31:50.774Z,22.10
2017-09-30T01:34:20.011Z,22.63
2017-09-30T01:36:48.479Z,22.30
2017-09-30T01:39:16.974Z,22.17
2017-09-30T01:41:45.559Z,21.43
2017-09-30T01:44:14.003Z,23.67
2017-09-30T01:46:43.337Z,22.80
2017-09-30T01:49:11.818Z,23.37
2017-09-30T01:51:40.293Z,22.50
2017-09-30T01:54:08.789Z,21.80
2017-09-30T01:56:37.258Z,21.50
2017-09-30T01:59:05.747Z,23.60
2017-09-30T02:01:34.204Z,23.13
2017-09-30T02:04:03.408Z,23.63
2017-09-30T02:06:31.868Z,23.77
2017-09-30T02:09:01.072Z,23.73
2017-09-30T02:11:30.415Z,24.20
2017-09-30T02:13:58.859Z,25.43
2017-09-30T02:16:28.193Z,24.70
2017-09-30T02:18:56.635Z,24.97
2017-09-30T02:21:25.864Z,24.23
2017-09-30T02:23:54.301Z,26.43
2017-09-30T02:26:22.839Z,25.60
2017-09-30T02:28:51.321Z,27.07
2017-09-30T02:31:19.802Z,24.10
2017-09-30T02:33:48.269Z,26.10
2017-09-30T02:36:16.767Z,24.07
2017-09-30T02:38:45.234Z,24.30
2017-09-30T02:41:13.673Z,26.97
2017-09-30T02:43:42.128Z,25.50
2017-09-30T02:46:10.565Z,26.00
2017-09-30T02:48:39.788Z,27.73
2017-09-30T02:51:08.274Z,25.77
2017-09-30T02:53:36.754Z,29.70
2017-09-30T02:56:05.238Z,27.10
2017-09-30T02:58:33.698Z,26.57
2017-09-30T03:01:02.202Z,28.10
2017-09-30T03:03:30.657Z,29.63
2017-09-30T03:05:59.877Z,26.80
2017-09-30T03:08:28.357Z,29.53
2017-09-30T03:10:56.792Z,29.57
2017-09-30T03:13:26.733Z,30.07
2017-09-30T03:15:56.061Z,29.00
2017-09-30T03:18:24.546Z,27.27
2017-09-30T03:20:53.024Z,28.57
2017-09-30T03:23:21.468Z,28.80
2017-09-30T03:25:50.690Z,26.00
2017-09-30T03:28:19.190Z,31.83
2017-09-30T03:30:47.660Z,31.03
2017-09-30T03:33:16.152Z,29.27
2017-09-30T03:35:44.637Z,30.30
2017-09-30T03:38:13.122Z,30.47
2017-09-30T03:40:41.602Z,29.87
2017-09-30T03:43:10.044Z,31.07
2017-09-30T03:45:39.268Z,29.10
2017-09-30T03:48:07.705Z,32.83
2017-09-30T03:50:37.784Z,30.97
2017-09-30T03:53:06.229Z,28.37
2017-09-30T03:55:35.457Z,31.70
2017-09-30T03:58:03.893Z,30.83
2017-09-30T04:00:33.116Z,32.27
2017-09-30T04:03:02.316Z,31.30
2017-09-30T04:05:31.542Z,31.90
2017-09-30T04:08:00.030Z,31.63
2017-09-30T04:10:28.464Z,33.20
2017-09-30T04:12:57.707Z,31.40
2017-09-30T04:15:26.186Z,33.37
2017-09-30T04:17:54.654Z,35.07
2017-09-30T04:20:23.093Z,30.57
2017-09-30T04:22:51.553Z,31.77
2017-09-30T04:25:19.992Z,30.80
2017-09-30T04:27:48.499Z,32.27
2017-09-30T04:30:16.948Z,32.20
2017-09-30T04:32:46.173Z,30.67
2017-09-30T04:35:14.612Z,34.10
2017-09-30T04:37:43.136Z,33.00
2017-09-30T04:40:11.577Z,32.73
2017-09-30T04:42:40.804Z,32.30
2017-09-30T04:45:09.301Z,34.37
2017-09-30T04:47:37.785Z,30.30
2017-09-30T04:50:06.221Z,32.60
2017-09-30T04:52:35.429Z,35.17
2017-09-30T04:55:04.653Z,34.90
2017-09-30T04:57:33.089Z,32.60
2017-09-30T05:00:01.545Z,32.87
2017-09-30T05:02:29.994Z,32.10
2017-09-30T05:04:58.491Z,36.43
2017-09-30T05:07:26.937Z,34.40
2017-09-30T05:09:56.459Z,35.30
2017-09-30T05:12:24.953Z,34.17
2017-09-30T05:14:53.440Z,34.67
2017-09-30T05:17:21.872Z,34.20
2017-09-30T05:19:50.337Z,33.77
2017-09-30T05:22:18.773Z,36.80
2017-09-30T05:24:47.270Z,34.60
2017-09-30T05:27:15.749Z,36.40
2017-09-30T05:29:44.332Z,37.53
2017-09-30T05:32:12.769Z,32.67
2017-09-30T05:34:41.209Z,36.37
2017-09-30T05:37:09.665Z,34.83
2017-09-30T05:39:38.170Z,34.03
2017-09-30T05:42:06.633Z,35.60
2017-09-30T05:44:35.065Z,35.43
2017-09-30T05:47:03.521Z,37.50
2017-09-30T05:49:31.951Z,35.03
2017-09-30T05:52:01.290Z,34.30
2017-09-30T05:54:29.768Z,34.97
2017-09-30T05:56:58.229Z,34.97
2017-09-30T05:59:27.453Z,36.20
2017-09-30T06:01:55.920Z,36.30
2017-09-30T06:04:24.418Z,36.83
2017-09-30T06:06:52.899Z,35.50
2017-09-30T06:09:21.382Z,36.73
2017-09-30T06:11:49.868Z,32.47
2017-09-30T06:14:18.346Z,32.90
2017-09-30T06:16:46.799Z,35.27
2017-09-30T06:19:16.032Z,36.40
2017-09-30T06:21:44.469Z,37.27
2017-09-30T06:24:13.718Z,34.83
2017-09-30T06:26:42.156Z,36.33
2017-09-30T06:29:11.496Z,33.60
2017-09-30T06:31:39.933Z,36.47
2017-09-30T06:34:09.160Z,33.30
2017-09-30T06:36:37.602Z,36.90
2017-09-30T06:39:06.132Z,33.50
2017-09-30T06:41:34.572Z,36.27
2017-09-30T06:44:03.101Z,34.80
2017-09-30T06:46:31.545Z,35.33
2017-09-30T06:49:00.777Z,34.17
2017-09-30T06:51:29.264Z,33.83
2017-09-30T06:53:57.729Z,36.50
2017-09-30T06:56:26.165Z,33.63
2017-09-30T06:58:56.109Z,36.53
2017-09-30T07:01:25.433Z,33.87
2017-09-30T07:03:53.927Z,35.10
2017-09-30T07:06:22.416Z,33.13
2017-09-30T07:08:50.890Z,33.40
2017-09-30T07:11:19.475Z,34.87
2017-09-30T07:13:47.958Z,35.67
2017-09-30T07:16:16.445Z,35.40
2017-09-30T07:18:44.893Z,35.30
2017-09-30T07:21:14.220Z,34.87
2017-09-30T07:23:42.705Z,35.67
2017-09-30T07:26:11.171Z,35.17
2017-09-30T07:28:39.613Z,32.97
2017-09-30T07:31:08.097Z,33.17
2017-09-30T07:33:36.536Z,32.80
2017-09-30T07:36:04.976Z,33.20
2017-09-30T07:38:34.206Z,33.70
2017-09-30T07:41:02.699Z,33.23
2017-09-30T07:43:31.160Z,33.40
2017-09-30T07:45:59.597Z,32.23
2017-09-30T07:48:28.136Z,32.57
2017-09-30T07:50:56.576Z,31.70
2017-09-30T07:53:25.041Z,32.23
2017-09-30T07:55:53.481Z,31.80
2017-09-30T07:58:21.941Z,31.33
2017-09-30T08:00:50.444Z,32.90
2017-09-30T08:03:18.921Z,32.00
2017-09-30T08:05:47.356Z,32.07
2017-09-30T08:08:15.817Z,30.30
2017-09-30T08:10:44.275Z,31.50
2017-09-30T08:13:12.844Z,33.60
2017-09-30T08:15:41.341Z,30.50
2017-09-30T08:18:09.827Z,32.53
2017-09-30T08:20:38.293Z,30.67
2017-09-30T08:23:06.739Z,30.50
2017-09-30T08:25:35.205Z,31.03
2017-09-30T08:28:03.748Z,31.40
2017-09-30T08:30:32.221Z,33.10
2017-09-30T08:33:00.712Z,29.73
2017-09-30T08:35:29.928Z,32.73
2017-09-30T08:37:58.364Z,30.80
2017-09-30T08:40:27.593Z,31.37
2017-09-30T08:42:56.032Z,31.83
2017-09-30T08:45:25.281Z,29.27
2017-09-30T08:47:53.725Z,29.20
2017-09-30T08:50:23.056Z,31.70
2017-09-30T08:52:51.543Z,30.23
2017-09-30T08:55:20.021Z,30.07
2017-09-30T08:57:48.504Z,30.07
2017-09-30T09:00:16.950Z,30.10
2017-09-30T09:02:46.284Z,24.40
2017-09-30T09:05:14.773Z,30.43
2017-09-30T09:07:43.260Z,29.43
2017-09-30T09:10:11.732Z,29.40
2017-09-30T09:12:40.224Z,30.33
2017-09-30T09:15:08.692Z,28.47
2017-09-30T09:17:37.158Z,28.37
2017-09-30T09:20:05.597Z,29.10
2017-09-30T09:22:34.146Z,29.90
2017-09-30T09:25:02.581Z,30.53
2017-09-30T09:27:31.048Z,28.37
2017-09-30T09:29:59.490Z,29.70
2017-09-30T09:32:27.965Z,29.70
2017-09-30T09:34:56.454Z,28.17
2017-09-30T09:37:24.893Z,26.90
2017-09-30T09:39:54.239Z,29.40
2017-09-30T09:42:22.684Z,26.60
2017-09-30T09:44:52.744Z,26.20
2017-09-30T09:47:21.189Z,26.73
2017-09-30T09:49:50.516Z,25.23
2017-09-30T09:52:18.959Z,25.20
2017-09-30T09:54:48.188Z,26.50
2017-09-30T09:57:16.629Z,26.63
2017-09-30T09:59:45.089Z,25.93
2017-09-30T10:02:13.537Z,23.83
2017-09-30T10:04:41.996Z,24.70
2017-09-30T10:07:11.200Z,22.33
2017-09-30T10:09:40.433Z,23.80
2017-09-30T10:12:08.872Z,23.43
2017-09-30T10:14:38.215Z,24.77
2017-09-30T10:17:06.694Z,24.77
2017-09-30T10:19:35.272Z,21.60
2017-09-30T10:22:03.766Z,25.23
2017-09-30T10:24:32.209Z,20.40
2017-09-30T10:27:01.543Z,22.00
2017-09-30T10:29:30.025Z,24.77
2017-09-30T10:31:58.511Z,22.57
2017-09-30T10:34:26.953Z,21.83
2017-09-30T10:36:56.177Z,21.87
2017-09-30T10:39:24.669Z,21.13
2017-09-30T10:41:53.148Z,20.57
2017-09-30T10:44:21.635Z,21.10
2017-09-30T10:46:50.112Z,21.40
2017-09-30T10:49:18.564Z,21.13
2017-09-30T10:51:47.896Z,20.87
2017-09-30T10:54:16.349Z,20.17
2017-09-30T10:56:45.605Z,20.93
2017-09-30T10:59:14.045Z,20.20
2017-09-30T11:01:42.546Z,20.17
2017-09-30T11:04:11.015Z,19.47
2017-09-30T11:06:39.456Z,20.70
2017-09-30T11:09:07.921Z,18.23
2017-09-30T11:11:36.474Z,19.20
2017-09-30T11:14:04.946Z,20.33
2017-09-30T11:16:33.433Z,18.03
2017-09-30T11:19:02.125Z,17.20
2017-09-30T11:21:30.569Z,17.67
2017-09-30T11:23:59.798Z,17.90
2017-09-30T11:26:28.249Z,17.40
2017-09-30T11:28:57.480Z,19.00
2017-09-30T11:31:25.964Z,16.20
2017-09-30T11:33:54.435Z,16.70
2017-09-30T11:36:22.877Z,16.37
2017-09-30T11:38:51.356Z,16.50
2017-09-30T11:41:19.893Z,16.53
2017-09-30T11:43:48.337Z,13.03
2017-09-30T11:46:17.582Z,17.73
2017-09-30T11:48:46.030Z,15.10
2017-09-30T11:51:15.265Z,15.50
2017-09-30T11:53:43.737Z,15.50
2017-09-30T11:56:12.210Z,15.70
2017-09-30T11:58:40.648Z,16.87
2017-09-30T12:01:09.121Z,16.57
2017-09-30T12:03:37.561Z,14.30
2017-09-30T12:06:06.054Z,14.43
2017-09-30T12:08:34.497Z,14.10
2017-09-30T12:11:03.724Z,14.63
2017-09-30T12:13:32.164Z,12.73
2017-09-30T12:16:01.402Z,13.73
2017-09-30T12:18:29.894Z,14.23
2017-09-30T12:20:58.360Z,14.20
2017-09-30T12:23:26.796Z,12.67
2017-09-30T12:25:55.237Z,13.27
2017-09-30T12:28:23.705Z,13.10
2017-09-30T12:30:52.197Z,13.70
2017-09-30T12:33:20.657Z,12.03
2017-09-30T12:35:49.864Z,11.83
2017-09-30T12:38:18.365Z,11.60
2017-09-30T12:40:46.805Z,14.40
2017-09-30T12:43:16.153Z,11.90
2017-09-30T12:45:44.593Z,11.60
2017-09-30T12:48:13.825Z,11.57
2017-09-30T12:50:42.281Z,11.63
2017-09-30T12:53:11.610Z,10.73
2017-09-30T12:55:40.057Z,11.57
2017-09-30T12:58:09.395Z,12.10
2017-09-30T13:00:37.834Z,10.37
2017-09-30T13:03:07.784Z,11.70
2017-09-30T13:05:36.304Z,10.87
2017-09-30T13:08:04.769Z,10.70
2017-09-30T13:10:33.208Z,11.70
2017-09-30T13:13:02.437Z,10.83
2017-09-30T13:15:30.873Z,10.57
2017-09-30T13:18:00.118Z,10.47
2017-09-30T13:20:28.589Z,10.10
2017-09-30T13:22:57.074Z,11.23
2017-09-30T13:25:25.537Z,9.57
2017-09-30T13:27:54.760Z,11.10
2017-09-30T13:30:23.220Z,10.37
2017-09-30T13:32:52.441Z,10.63
2017-09-30T13:35:20.931Z,10.77
2017-09-30T13:37:49.406Z,10.20
2017-09-30T13:40:17.877Z,9.90
2017-09-30T13:42:46.369Z,10.80
2017-09-30T13:45:14.848Z,11.20
2017-09-30T13:47:43.284Z,10.80
2017-09-30T13:50:13.257Z,11.57
2017-09-30T13:52:41.697Z,11.37
2017-09-30T13:55:11.033Z,12.00
2017-09-30T13:57:39.517Z,11.30
2017-09-30T14:00:07.996Z,12.00
2017-09-30T14:02:36.487Z,10.60
2017-09-30T14:05:04.929Z,11.70
2017-09-30T14:07:34.157Z,11.30
2017-09-30T14:10:02.650Z,12.13
2017-09-30T14:12:31.124Z,11.47
2017-09-30T14:14:59.610Z,12.70
2017-09-30T14:17:28.072Z,11.33
2017-09-30T14:19:56.513Z,11.30
2017-09-30T14:22:25.746Z,10.93
2017-09-30T14:24:54.957Z,11.23
2017-09-30T14:27:23.411Z,10.40
2017-09-30T14:29:52.753Z,10.70
2017-09-30T14:32:21.338Z,11.00
2017-09-30T14:34:49.785Z,11.30
2017-09-30T14:37:19.025Z,11.37
2017-09-30T14:39:47.507Z,11.63
2017-09-30T14:42:16.080Z,11.90
2017-09-30T14:44:44.564Z,12.70
2017-09-30T14:47:13.005Z,11.40
2017-09-30T14:49:42.232Z,11.10
2017-09-30T14:52:10.669Z,11.33
2017-09-30T14:54:39.131Z,11.97
2017-09-30T14:57:07.573Z,12.50
2017-09-30T14:59:36.081Z,14.00
2017-09-30T15:02:04.521Z,11.10
2017-09-30T15:04:33.752Z,13.13
2017-09-30T15:07:02.316Z,12.30
2017-09-30T15:09:30.781Z,12.83
2017-09-30T15:11:59.985Z,13.63
2017-09-30T15:14:29.212Z,13.13
2017-09-30T15:16:57.657Z,12.13
2017-09-30T15:19:26.940Z,12.43
2017-09-30T15:21:55.380Z,12.47
2017-09-30T15:24:23.964Z,13.60
2017-09-30T15:26:52.414Z,11.93
2017-09-30T15:29:21.624Z,13.03
2017-09-30T15:31:50.944Z,13.10
2017-09-30T15:34:19.428Z,13.33
2017-09-30T15:36:47.900Z,13.30
2017-09-30T15:39:16.340Z,14.53
2017-09-30T15:41:44.806Z,14.00
2017-09-30T15:44:13.357Z,14.60
2017-09-30T15:46:41.825Z,14.77
2017-09-30T15:49:10.261Z,14.63
2017-09-30T15:51:38.806Z,14.03
2017-09-30T15:54:07.284Z,15.37
2017-09-30T15:56:35.873Z,15.13
2017-09-30T15:59:04.320Z,16.00
2017-09-30T16:01:33.553Z,14.20
2017-09-30T16:04:02.032Z,16.03
2017-09-30T16:06:30.533Z,15.70
2017-09-30T16:08:58.974Z,14.90
2017-09-30T16:11:27.482Z,15.47
2017-09-30T16:13:56.076Z,14.67
2017-09-30T16:16:24.545Z,16.27
2017-09-30T16:18:53.006Z,15.23
2017-09-30T16:21:21.450Z,15.03
2017-09-30T16:23:49.913Z,15.30
2017-09-30T16:26:18.356Z,15.60
2017-09-30T16:28:46.858Z,14.67
2017-09-30T16:31:15.302Z,15.50
2017-09-30T16:33:44.550Z,15.80
2017-09-30T16:36:12.992Z,15.00
2017-09-30T16:38:42.223Z,14.03
2017-09-30T16:41:10.665Z,15.40
2017-09-30T16:43:39.899Z,15.83
2017-09-30T16:46:08.344Z,15.63
2017-09-30T16:48:37.592Z,14.60
2017-09-30T16:51:06.132Z,15.03
2017-09-30T16:53:35.341Z,16.13
2017-09-30T16:56:03.845Z,15.00
2017-09-30T16:58:32.288Z,16.07
2017-09-30T17:01:01.517Z,14.00
2017-09-30T17:03:29.961Z,14.13
2017-09-30T17:05:59.197Z,15.33
2017-09-30T17:08:27.798Z,14.80
2017-09-30T17:10:56.261Z,14.30
2017-09-30T17:13:24.697Z,14.53
2017-09-30T17:15:53.966Z,14.83
2017-09-30T17:18:22.410Z,14.60
2017-09-30T17:20:51.641Z,14.60
2017-09-30T17:23:20.080Z,14.60
2017-09-30T17:25:49.305Z,15.07
2017-09-30T17:28:17.748Z,14.40
2017-09-30T17:30:46.188Z,14.70
2017-09-30T17:33:14.756Z,14.87
2017-09-30T17:35:43.198Z,15.40
2017-09-30T17:38:12.424Z,16.93
2017-09-30T17:40:40.925Z,14.20
2017-09-30T17:43:09.397Z,14.73
2017-09-30T17:45:37.884Z,15.37
2017-09-30T17:48:06.469Z,14.53
2017-09-30T17:50:34.909Z,14.27
2017-09-30T17:53:04.262Z,14.83
2017-09-30T17:55:32.743Z,13.63
2017-09-30T17:58:01.249Z,15.70
2017-09-30T18:00:29.689Z,15.73
2017-09-30T18:02:58.180Z,15.77
2017-09-30T18:05:26.621Z,14.93
2017-09-30T18:07:55.858Z,15.47
2017-09-30T18:10:24.346Z,16.00
2017-09-30T18:12:52.933Z,15.00
2017-09-30T18:15:21.377Z,14.43
2017-09-30T18:17:50.582Z,14.13
2017-09-30T18:20:19.811Z,14.47
2017-09-30T18:22:48.300Z,14.50
2017-09-30T18:25:16.873Z,14.30
2017-09-30T18:27:45.322Z,14.43
2017-09-30T18:30:14.560Z,14.03
2017-09-30T18:32:43.009Z,15.30
2017-09-30T18:35:12.342Z,14.30
2017-09-30T18:37:40.789Z,14.23
2017-09-30T18:40:10.028Z,13.40
2017-09-30T18:42:38.474Z,14.23
2017-09-30T18:45:07.701Z,15.37
2017-09-30T18:47:36.141Z,15.00
2017-09-30T18:50:07.037Z,13.83
2017-09-30T18:52:35.477Z,14.77
2017-09-30T18:55:04.684Z,13.00
2017-09-30T18:57:33.153Z,13.73
2017-09-30T19:00:02.358Z,13.60
2017-09-30T19:02:31.689Z,13.97
2017-09-30T19:05:00.125Z,14.37
2017-09-30T19:07:29.353Z,14.60
2017-09-30T19:09:57.792Z,13.53
2017-09-30T19:12:26.257Z,12.87
2017-09-30T19:14:54.697Z,12.60
2017-09-30T19:17:23.160Z,13.93
2017-09-30T19:19:52.393Z,14.60
2017-09-30T19:22:20.857Z,14.13
2017-09-30T19:24:49.346Z,15.40
2017-09-30T19:27:17.808Z,14.70
2017-09-30T19:29:47.016Z,13.43
2017-09-30T19:32:15.519Z,14.47
2017-09-30T19:34:43.964Z,16.23
2017-09-30T19:37:13.172Z,14.40
2017-09-30T19:39:42.403Z,15.90
2017-09-30T19:42:10.885Z,14.67
2017-09-30T19:44:39.443Z,13.23
2017-09-30T19:47:07.880Z,13.90
2017-09-30T19:49:36.340Z,14.13
2017-09-30T19:52:04.781Z,14.13
2017-09-30T19:54:34.012Z,14.20
2017-09-30T19:57:02.457Z,14.43
2017-09-30T19:59:31.684Z,14.60
2017-09-30T20:02:00.133Z,14.57
2017-09-30T20:04:29.360Z,16.40
2017-09-30T20:06:57.797Z,14.63
2017-09-30T20:09:26.264Z,15.17
2017-09-30T20:11:54.700Z,14.37
2017-09-30T20:14:23.298Z,13.50
2017-09-30T20:16:51.778Z,13.40
2017-09-30T20:19:20.222Z,14.03
2017-09-30T20:21:49.448Z,12.93
2017-09-30T20:24:17.881Z,14.87
2017-09-30T20:26:46.397Z,15.03
2017-09-30T20:29:15.605Z,13.60
2017-09-30T20:31:44.100Z,14.00
2017-09-30T20:34:12.584Z,15.13
2017-09-30T20:36:41.168Z,14.43
2017-09-30T20:39:09.653Z,15.10
2017-09-30T20:41:38.120Z,13.57
2017-09-30T20:44:06.656Z,13.23
2017-09-30T20:46:35.121Z,15.57
2017-09-30T20:49:03.564Z,14.77
2017-09-30T20:51:32.028Z,12.83
2017-09-30T20:54:01.263Z,13.17
2017-09-30T20:56:29.729Z,13.10
2017-09-30T20:58:58.172Z,13.87
2017-09-30T21:01:26.656Z,14.50
2017-09-30T21:03:55.109Z,13.13
2017-09-30T21:06:23.569Z,15.37
2017-09-30T21:08:52.041Z,13.33
2017-09-30T21:11:20.495Z,15.20
2017-09-30T21:13:49.838Z,15.33
2017-09-30T21:16:18.281Z,13.53
2017-09-30T21:18:47.519Z,14.77
2017-09-30T21:21:15.961Z,14.60
2017-09-30T21:23:45.190Z,14.33
2017-09-30T21:26:13.633Z,14.80
2017-09-30T21:28:42.864Z,14.40
2017-09-30T21:31:11.305Z,13.30
2017-09-30T21:33:39.773Z,15.77
2017-09-30T21:36:08.208Z,15.10
2017-09-30T21:38:36.677Z,14.83
2017-09-30T21:41:05.883Z,13.73
2017-09-30T21:43:34.349Z,16.37
2017-09-30T21:46:03.553Z,14.23
2017-09-30T21:48:32.765Z,14.87
2017-09-30T21:51:01.260Z,14.40
2017-09-30T21:53:29.701Z,16.73
2017-09-30T21:55:58.934Z,15.40
2017-09-30T21:58:27.373Z,14.10
2017-09-30T22:00:55.931Z,14.03
2017-09-30T22:03:24.376Z,14.67
2017-09-30T22:05:52.881Z,15.00
2017-09-30T22:08:21.320Z,15.07
2017-09-30T22:10:50.655Z,14.50
2017-09-30T22:13:19.093Z,15.60
2017-09-30T22:15:48.325Z,14.90
2017-09-30T22:18:16.761Z,14.67
2017-09-30T22:20:45.309Z,16.30
2017-09-30T22:23:14.292Z,15.43
2017-09-30T22:25:42.732Z,14.83
2017-09-30T22:28:11.960Z,13.80
2017-09-30T22:30:40.397Z,15.80
2017-09-30T22:33:08.852Z,14.40
2017-09-30T22:35:37.288Z,14.47
2017-09-30T22:38:06.626Z,15.87
2017-09-30T22:40:35.068Z,15.23
2017-09-30T22:43:04.410Z,15.23
2017-09-30T22:45:32.853Z,11.27
2017-09-30T22:48:02.194Z,16.03
2017-09-30T22:50:30.636Z,16.53
2017-09-30T22:52:59.969Z,15.20
2017-09-30T22:55:28.409Z,16.00
2017-09-30T22:57:57.755Z,16.07
2017-09-30T23:00:26.193Z,14.97
2017-09-30T23:02:55.520Z,14.83
2017-09-30T23:05:24.021Z,15.13
2017-09-30T23:07:52.470Z,16.30
2017-09-30T23:10:21.806Z,15.20
2017-09-30T23:12:50.280Z,15.30
2017-09-30T23:15:18.770Z,15.67
2017-09-30T23:17:47.208Z,14.87
2017-09-30T23:20:16.552Z,16.47
2017-09-30T23:22:45.029Z,15.40
2017-09-30T23:25:13.505Z,16.00
2017-09-30T23:27:41.945Z,15.83
2017-09-30T23:30:11.185Z,16.37
2017-09-30T23:32:39.620Z,17.10
2017-09-30T23:35:08.083Z,15.47
2017-09-30T23:37:36.541Z,15.30
2017-09-30T23:40:05.007Z,17.17
2017-09-30T23:42:33.445Z,17.57
2017-09-30T23:45:01.987Z,16.00
2017-09-30T23:47:30.428Z,15.50
2017-09-30T23:49:59.634Z,16.67
2017-09-30T23:52:28.860Z,16.33
2017-09-30T23:54:58.157Z,12.60
2017-09-30T23:57:26.648Z,16.90
2017-09-30T23:59:55.097Z,17.77
